Time;durP1;ratioP1;P1;durP2;ratioP2;P2;SDS_P1;SDS_P2;PMS_P1;PMS_P2;Temp;Humidity;BMP_temperature;BMP_pressure;BME280_temperature;BME280_humidity;BME280_pressure;Samples;Min_cycle;Max_cycle;Signal;HPM_P1;HPM_P2
2022/04/13 00:01:03;;;;;;;4.95;3.60;;;13.40;66.80;;;;;;4955380;28;20114;-84
2022/04/13 00:03:29;;;;;;;7.38;4.10;;;13.40;67.00;;;;;;4951437;29;20034;-83
2022/04/13 00:05:55;;;;;;;4.68;3.58;;;13.30;67.10;;;;;;4953115;28;20084;-85
2022/04/13 00:08:21;;;;;;;7.78;3.70;;;13.30;67.20;;;;;;4963814;28;20555;-84
2022/04/13 00:10:47;;;;;;;5.00;3.45;;;13.30;67.30;;;;;;4976792;28;20062;-83
2022/04/13 00:13:13;;;;;;;5.82;3.80;;;13.30;67.40;;;;;;4977923;28;20033;-84
2022/04/13 00:15:40;;;;;;;3.95;3.00;;;13.30;67.60;;;;;;4959799;28;20033;-82
2022/04/13 00:18:09;;;;;;;5.00;3.70;;;13.30;67.60;;;;;;4962138;28;20046;-84
2022/04/13 00:20:38;;;;;;;4.65;3.20;;;13.30;67.70;;;;;;4941401;29;20057;-83
2022/04/13 00:23:04;;;;;;;4.05;3.42;;;13.40;68.10;;;;;;4959629;28;20031;-83
2022/04/13 00:25:30;;;;;;;4.93;3.58;;;13.40;68.20;;;;;;4977302;28;20430;-84
2022/04/13 00:27:55;;;;;;;5.10;3.67;;;13.40;68.30;;;;;;4949462;28;20031;-84
2022/04/13 00:30:21;;;;;;;4.63;3.47;;;13.50;68.50;;;;;;4994335;28;20452;-85
2022/04/13 00:32:47;;;;;;;5.85;3.55;;;13.50;68.60;;;;;;4977543;28;20045;-86
2022/04/13 00:35:13;;;;;;;5.13;3.22;;;13.50;68.60;;;;;;4963638;28;20020;-86
2022/04/13 00:37:39;;;;;;;5.25;3.97;;;13.50;68.70;;;;;;4963246;28;20082;-83
2022/04/13 00:40:06;;;;;;;7.95;3.78;;;13.50;68.80;;;;;;4961199;28;20031;-83
2022/04/13 00:42:32;;;;;;;4.35;3.40;;;13.50;68.90;;;;;;4970659;28;20019;-84
2022/04/13 00:44:58;;;;;;;4.57;3.42;;;13.50;68.90;;;;;;4982015;28;20027;-83
2022/04/13 00:47:24;;;;;;;4.93;3.60;;;13.50;68.90;;;;;;4982174;28;20023;-84
2022/04/13 00:49:49;;;;;;;4.28;3.17;;;13.50;69.00;;;;;;4975825;28;20035;-84
2022/04/13 00:52:18;;;;;;;5.55;3.63;;;13.40;69.30;;;;;;4959526;29;20480;-84
2022/04/13 00:54:50;;;;;;;4.43;3.53;;;13.40;69.70;;;;;;4976444;28;20030;-86
2022/04/13 00:57:17;;;;;;;;;;;13.40;69.90;;;;;;4949949;29;20027;-83
2022/04/13 00:59:45;;;;;;;4.00;3.22;;;13.40;69.50;;;;;;4956432;28;19910;-86
2022/04/13 01:02:12;;;;;;;5.15;3.13;;;13.40;69.60;;;;;;4961899;28;20027;-83
2022/04/13 01:04:39;;;;;;;4.82;3.50;;;13.40;69.80;;;;;;4972785;28;20037;-83
2022/04/13 01:07:08;;;;;;;4.85;2.85;;;13.40;70.00;;;;;;4982372;28;20035;-84
2022/04/13 01:09:35;;;;;;;4.72;3.17;;;13.30;70.20;;;;;;4967372;28;20523;-85
2022/04/13 01:12:01;;;;;;;3.83;3.08;;;13.30;70.50;;;;;;4973282;28;20019;-85
2022/04/13 01:14:26;;;;;;;3.45;2.97;;;13.30;70.80;;;;;;4967578;28;20034;-84
2022/04/13 01:16:52;;;;;;;4.38;2.85;;;13.30;71.10;;;;;;4964788;28;20023;-85
2022/04/13 01:19:18;;;;;;;4.57;3.22;;;13.30;71.30;;;;;;4968228;28;20046;-85
2022/04/13 01:21:52;;;;;;;5.05;3.35;;;13.30;71.20;;;;;;4974685;28;20021;-84
2022/04/13 01:24:19;;;;;;;7.10;3.38;;;13.20;71.00;;;;;;4988039;28;20022;-85
2022/04/13 01:26:45;;;;;;;5.72;3.60;;;13.20;70.90;;;;;;4969351;28;20031;-85
2022/04/13 01:29:11;;;;;;;3.90;3.17;;;13.00;71.00;;;;;;4969245;28;20042;-85
2022/04/13 01:31:37;;;;;;;6.32;3.10;;;13.00;71.40;;;;;;4968800;28;20019;-85
2022/04/13 01:34:04;;;;;;;5.60;3.40;;;12.90;71.60;;;;;;4991580;28;20044;-86
2022/04/13 01:36:31;;;;;;;5.15;3.38;;;12.80;71.80;;;;;;4982135;28;20019;-86
2022/04/13 01:38:57;;;;;;;4.05;3.15;;;12.80;72.00;;;;;;4995036;28;20020;-86
2022/04/13 01:41:23;;;;;;;4.85;3.20;;;12.70;72.20;;;;;;4964529;28;20018;-87
2022/04/13 01:43:48;;;;;;;5.75;3.33;;;12.80;72.40;;;;;;4991310;28;20090;-83
2022/04/13 01:46:14;;;;;;;4.78;3.40;;;12.70;72.50;;;;;;4955787;29;20035;-85
2022/04/13 01:48:39;;;;;;;7.40;3.20;;;12.70;72.60;;;;;;4952893;28;20051;-84
2022/04/13 01:51:05;;;;;;;3.60;2.88;;;12.70;72.80;;;;;;4959309;28;20031;-87
2022/04/13 01:53:30;;;;;;;3.38;3.08;;;12.80;73.00;;;;;;4946554;29;20393;-85
2022/04/13 01:55:57;;;;;;;3.30;2.95;;;12.70;73.00;;;;;;4968134;28;20064;-84
2022/04/13 01:58:23;;;;;;;6.65;3.28;;;12.70;73.00;;;;;;4967765;28;20038;-84
2022/04/13 02:00:53;;;;;;;4.60;3.00;;;12.70;73.00;;;;;;4963422;28;20122;-83
2022/04/13 02:05:48;;;;;;;3.28;2.72;;;12.60;73.50;;;;;;4951857;28;20056;-86
2022/04/13 02:08:14;;;;;;;5.40;2.78;;;12.60;73.60;;;;;;4933189;29;20035;-86
2022/04/13 02:10:40;;;;;;;6.65;2.67;;;12.60;73.70;;;;;;4959053;28;20089;-86
2022/04/13 02:13:05;;;;;;;5.68;2.97;;;12.50;73.80;;;;;;4960862;28;20114;-86
2022/04/13 02:15:31;;;;;;;4.40;2.95;;;12.50;74.00;;;;;;4949021;28;20035;-86
2022/04/13 02:17:56;;;;;;;3.00;2.70;;;12.50;74.20;;;;;;4958463;29;20038;-86
2022/04/13 02:20:22;;;;;;;2.95;2.67;;;12.50;74.50;;;;;;4967635;28;20035;-85
2022/04/13 02:22:48;;;;;;;5.30;3.30;;;12.50;74.60;;;;;;4976907;28;20291;-86
2022/04/13 02:25:14;;;;;;;6.93;2.90;;;12.50;74.70;;;;;;4959074;28;20046;-85
2022/04/13 02:27:40;;;;;;;7.22;2.70;;;12.40;74.70;;;;;;4961513;28;20050;-85
2022/04/13 02:30:06;;;;;;;3.33;2.90;;;12.40;75.10;;;;;;4978236;28;20055;-84
2022/04/13 02:32:32;;;;;;;5.22;2.63;;;12.40;75.50;;;;;;4977738;28;20596;-85
2022/04/13 02:34:57;;;;;;;4.35;2.90;;;12.40;75.70;;;;;;4958368;28;20054;-85
2022/04/13 02:37:23;;;;;;;4.57;2.95;;;12.50;76.20;;;;;;4957062;28;20042;-85
2022/04/13 02:39:49;;;;;;;5.38;2.83;;;12.50;76.40;;;;;;4977875;28;20041;-86
2022/04/13 02:42:17;;;;;;;2.75;2.50;;;12.50;76.50;;;;;;4976905;28;20069;-85
2022/04/13 02:44:43;;;;;;;3.38;2.85;;;12.60;76.60;;;;;;4965158;28;20121;-86
2022/04/13 02:47:09;;;;;;;4.47;2.80;;;12.50;76.60;;;;;;4959999;28;20515;-86
2022/04/13 02:49:35;;;;;;;4.25;2.85;;;12.60;76.80;;;;;;4977178;28;20031;-86
2022/04/13 02:52:00;;;;;;;5.82;3.17;;;12.60;76.90;;;;;;4977173;28;20026;-86
2022/04/13 02:54:26;;;;;;;3.33;3.03;;;12.60;77.30;;;;;;4959024;28;20122;-86
2022/04/13 02:56:52;;;;;;;4.63;3.30;;;12.60;77.50;;;;;;4959780;28;20041;-86
2022/04/13 02:59:17;;;;;;;4.95;2.55;;;12.60;77.60;;;;;;4958599;28;20062;-85
2022/04/13 03:01:46;;;;;;;7.90;3.05;;;12.60;77.80;;;;;;4959748;28;20094;-86
2022/04/13 03:04:13;;;;;;;6.72;2.92;;;12.50;77.90;;;;;;4975976;28;20031;-86
2022/04/13 03:06:39;;;;;;;5.85;2.70;;;12.50;78.10;;;;;;4956476;29;20034;-85
2022/04/13 03:09:05;;;;;;;3.97;2.97;;;12.50;78.30;;;;;;4971727;28;20034;-85
2022/04/13 03:11:30;;;;;;;2.67;2.40;;;12.50;78.50;;;;;;4959181;28;20491;-85
2022/04/13 03:13:56;;;;;;;4.93;3.17;;;12.40;78.80;;;;;;4977270;28;20082;-86
2022/04/13 03:16:22;;;;;;;5.97;3.17;;;12.50;79.20;;;;;;4975270;28;20030;-86
2022/04/13 03:18:48;;;;;;;5.97;3.95;;;12.40;79.30;;;;;;4958823;28;20038;-86
2022/04/13 03:21:13;;;;;;;6.03;3.60;;;12.40;79.80;;;;;;4976017;28;20030;-86
2022/04/13 03:23:39;;;;;;;7.00;4.75;;;12.30;80.20;;;;;;4971267;28;20026;-86
2022/04/13 03:26:05;;;;;;;7.88;5.82;;;12.30;80.50;;;;;;4961750;28;20018;-86
2022/04/13 03:28:30;;;;;;;8.30;6.32;;;12.30;80.70;;;;;;4979042;28;20146;-86
2022/04/13 03:30:56;;;;;;;7.80;6.05;;;12.30;81.00;;;;;;4979621;28;20030;-85
2022/04/13 03:33:22;;;;;;;7.10;5.13;;;12.30;81.50;;;;;;4976760;28;20031;-86
2022/04/13 03:35:48;;;;;;;6.63;5.10;;;12.20;82.00;;;;;;4976817;28;20034;-86
2022/04/13 03:38:13;;;;;;;7.70;5.53;;;12.20;82.30;;;;;;4958558;28;20058;-85
2022/04/13 03:40:39;;;;;;;10.65;6.25;;;12.20;82.50;;;;;;4978598;28;20121;-85
2022/04/13 03:43:05;;;;;;;11.18;6.85;;;12.20;82.60;;;;;;4960887;28;20050;-85
2022/04/13 03:45:30;;;;;;;9.52;6.88;;;12.10;82.80;;;;;;4960164;28;20027;-85
2022/04/13 03:47:56;;;;;;;10.65;6.20;;;12.10;83.70;;;;;;4960529;28;20034;-87
2022/04/13 03:50:22;;;;;;;11.23;6.35;;;12.00;83.50;;;;;;4976648;28;20034;-86
2022/04/13 03:52:47;;;;;;;6.93;5.75;;;12.00;84.00;;;;;;4963148;28;20090;-84
2022/04/13 03:55:13;;;;;;;8.15;5.97;;;12.00;84.50;;;;;;4970112;28;20023;-85
2022/04/13 03:57:38;;;;;;;9.57;6.38;;;12.00;85.00;;;;;;4984861;28;20046;-86
2022/04/13 04:00:05;;;;;;;10.40;6.53;;;12.00;85.10;;;;;;4955923;29;20086;-86
2022/04/13 04:02:31;;;;;;;9.55;5.82;;;11.90;85.20;;;;;;4958179;28;20042;-86
2022/04/13 04:04:56;;;;;;;12.77;7.07;;;11.90;85.40;;;;;;4975496;28;20041;-86
2022/04/13 04:07:22;;;;;;;8.90;6.45;;;11.80;85.50;;;;;;4956471;28;20031;-86
2022/04/13 04:09:48;;;;;;;9.02;6.40;;;11.70;85.70;;;;;;4969079;28;20054;-85
2022/04/13 04:12:14;;;;;;;10.98;7.00;;;11.60;86.40;;;;;;4959083;28;20030;-85
2022/04/13 04:14:40;;;;;;;9.32;6.82;;;11.60;87.00;;;;;;4954125;29;20032;-85
2022/04/13 04:17:05;;;;;;;8.07;6.15;;;11.60;87.50;;;;;;4956064;29;20031;-86
2022/04/13 04:19:31;;;;;;;9.68;6.85;;;11.60;87.70;;;;;;4957857;28;20106;-86
2022/04/13 04:21:57;;;;;;;9.55;6.53;;;11.60;88.00;;;;;;4959723;28;20026;-85
2022/04/13 04:24:22;;;;;;;9.18;6.80;;;11.50;88.30;;;;;;4957805;28;20035;-86
2022/04/13 04:26:48;;;;;;;9.35;6.82;;;11.50;88.90;;;;;;4958707;28;20034;-87
2022/04/13 04:29:14;;;;;;;10.07;7.05;;;11.50;89.20;;;;;;4955591;29;20031;-85
2022/04/13 04:31:53;;;;;;;9.80;6.78;;;11.50;89.40;;;;;;4971305;28;20081;-86
2022/04/13 04:34:21;;;;;;;9.70;6.80;;;11.50;89.60;;;;;;4955008;29;20027;-86
2022/04/13 04:36:46;;;;;;;11.20;5.95;;;11.40;89.50;;;;;;4958048;28;20023;-85
2022/04/13 04:39:12;;;;;;;9.38;5.85;;;11.40;90.00;;;;;;4975874;28;20035;-86
2022/04/13 04:41:40;;;;;;;9.68;5.47;;;11.40;90.20;;;;;;4958972;28;20038;-86
2022/04/13 04:44:06;;;;;;;6.20;4.82;;;11.30;90.50;;;;;;4976419;28;20043;-86
2022/04/13 04:46:31;;;;;;;4.18;3.50;;;11.30;90.50;;;;;;4958307;28;20463;-86
2022/04/13 04:48:57;;;;;;;5.28;2.97;;;11.30;90.40;;;;;;4959535;28;20027;-85
2022/04/13 04:51:22;;;;;;;4.68;2.72;;;11.20;90.20;;;;;;4958019;28;20027;-86
2022/04/13 04:53:48;;;;;;;4.95;2.85;;;11.20;90.10;;;;;;4976890;28;20078;-86
2022/04/13 04:56:15;;;;;;;3.15;2.80;;;11.10;90.20;;;;;;4959958;28;20031;-86
2022/04/13 04:58:40;;;;;;;5.10;2.60;;;11.00;90.50;;;;;;4956840;29;20054;-87
2022/04/13 05:01:06;;;;;;;4.18;2.47;;;11.00;90.60;;;;;;4957170;29;20023;-86
2022/04/13 05:03:33;;;;;;;4.90;3.03;;;11.00;90.60;;;;;;4974920;28;20506;-86
2022/04/13 05:05:59;;;;;;;3.55;2.20;;;11.00;90.70;;;;;;4961887;28;20118;-85
2022/04/13 05:08:25;;;;;;;2.75;2.15;;;10.90;90.80;;;;;;4967357;28;20117;-85
2022/04/13 05:10:53;;;;;;;5.97;2.92;;;11.00;91.00;;;;;;4971794;28;20014;-86
2022/04/13 05:13:19;;;;;;;4.53;2.80;;;11.00;91.20;;;;;;4996209;28;20015;-86
2022/04/13 05:15:45;;;;;;;5.28;2.72;;;11.00;91.30;;;;;;4974849;28;20027;-85
2022/04/13 05:18:12;;;;;;;4.97;2.80;;;11.00;91.40;;;;;;4971637;28;20081;-85
2022/04/13 05:20:39;;;;;;;3.03;2.22;;;11.00;91.50;;;;;;4976638;28;20031;-84
2022/04/13 05:23:05;;;;;;;3.97;2.50;;;11.10;91.50;;;;;;4978512;28;20045;-84
2022/04/13 05:25:30;;;;;;;5.47;2.95;;;11.10;91.70;;;;;;4960904;28;20503;-86
2022/04/13 05:27:56;;;;;;;4.55;2.75;;;11.20;91.50;;;;;;4961518;28;20085;-85
2022/04/13 05:30:22;;;;;;;5.03;3.05;;;11.20;91.60;;;;;;4961845;28;20031;-86
2022/04/13 05:32:56;;;;;;;7.00;3.83;;;11.20;91.60;;;;;;4974368;28;20468;-86
2022/04/13 05:35:23;;;;;;;5.13;3.10;;;11.30;91.80;;;;;;4981235;28;20023;-86
2022/04/13 05:37:49;;;;;;;3.42;2.78;;;11.40;91.80;;;;;;4962803;28;20399;-85
2022/04/13 05:40:15;;;;;;;4.43;3.20;;;11.40;92.00;;;;;;4979914;28;20026;-85
2022/04/13 05:42:41;;;;;;;3.90;3.38;;;11.40;92.00;;;;;;4980359;28;20033;-85
2022/04/13 05:45:08;;;;;;;4.68;3.28;;;11.50;92.10;;;;;;4961761;28;21140;-85
2022/04/13 05:47:34;;;;;;;4.55;3.63;;;11.50;92.10;;;;;;4959693;28;20033;-86
2022/04/13 05:50:00;;;;;;;5.00;3.45;;;11.60;92.20;;;;;;4962164;28;20058;-86
2022/04/13 05:52:26;;;;;;;8.30;3.72;;;11.60;92.30;;;;;;4965358;28;20033;-86
2022/04/13 05:54:52;;;;;;;5.72;3.38;;;11.70;92.30;;;;;;4979420;28;20031;-86
2022/04/13 05:57:17;;;;;;;5.05;3.70;;;11.70;92.30;;;;;;4974287;28;20115;-86
2022/04/13 05:59:43;;;;;;;5.43;3.58;;;11.80;92.40;;;;;;4961663;28;20031;-86
2022/04/13 06:02:09;;;;;;;7.47;3.92;;;11.80;92.40;;;;;;4961609;28;20494;-86
2022/04/13 06:04:34;;;;;;;6.47;3.72;;;11.80;92.50;;;;;;4956692;28;20034;-85
2022/04/13 06:07:00;;;;;;;4.85;3.67;;;11.80;92.50;;;;;;4959818;28;20134;-85
2022/04/13 06:09:26;;;;;;;5.40;3.80;;;11.80;92.50;;;;;;4973426;28;20030;-86
2022/04/13 06:11:52;;;;;;;6.63;3.78;;;11.80;92.70;;;;;;4964830;28;20033;-86
2022/04/13 06:14:17;;;;;;;5.30;3.55;;;11.80;92.80;;;;;;4956705;28;20113;-86
2022/04/13 06:16:43;;;;;;;5.35;3.20;;;11.90;93.00;;;;;;4960285;28;20460;-86
2022/04/13 06:19:09;;;;;;;8.07;3.70;;;11.90;93.30;;;;;;4953618;28;20023;-85
2022/04/13 06:21:35;;;;;;;8.52;3.85;;;12.00;93.10;;;;;;4962837;28;20049;-85
2022/04/13 06:24:01;;;;;;;9.48;3.90;;;12.10;93.00;;;;;;4960971;28;20079;-86
2022/04/13 06:26:27;;;;;;;11.57;3.38;;;12.20;93.10;;;;;;4979079;28;20026;-85
2022/04/13 06:28:52;;;;;;;6.03;3.63;;;12.30;92.90;;;;;;4975882;28;20118;-87
2022/04/13 06:31:19;;;;;;;15.75;4.53;;;12.30;92.70;;;;;;4956932;28;20027;-88
2022/04/13 06:33:45;;;;;;;8.38;2.97;;;12.40;92.60;;;;;;4957530;28;20026;-87
2022/04/13 06:36:10;;;;;;;3.58;2.45;;;12.60;92.40;;;;;;4960435;28;20058;-87
2022/04/13 06:38:40;;;;;;;3.83;2.53;;;12.60;92.20;;;;;;4961988;28;20038;-86
2022/04/13 06:41:09;;;;;;;4.18;2.92;;;12.80;92.20;;;;;;4962948;28;20027;-85
2022/04/13 06:43:35;;;;;;;4.45;2.78;;;12.90;92.10;;;;;;4972887;28;20085;-85
2022/04/13 06:46:01;;;;;;;6.55;2.63;;;13.00;92.00;;;;;;4981923;28;20079;-85
2022/04/13 06:48:26;;;;;;;4.10;2.63;;;13.10;91.90;;;;;;4965743;28;20129;-86
2022/04/13 06:50:52;;;;;;;3.58;2.40;;;13.30;91.70;;;;;;4964656;28;20034;-86
2022/04/13 06:53:18;;;;;;;4.22;2.72;;;13.40;91.50;;;;;;4962360;28;20034;-88
2022/04/13 06:55:45;;;;;;;3.53;2.13;;;13.60;91.30;;;;;;4961302;28;20129;-86
2022/04/13 06:58:10;;;;;;;5.88;2.30;;;13.80;91.00;;;;;;4960978;28;20034;-88
2022/04/13 07:00:36;;;;;;;3.70;2.00;;;13.90;90.60;;;;;;4958697;28;20030;-87
2022/04/13 07:03:02;;;;;;;2.95;2.13;;;14.20;90.40;;;;;;4964391;28;20070;-86
2022/04/13 07:05:28;;;;;;;3.50;2.28;;;14.40;90.10;;;;;;4965522;28;20045;-86
2022/04/13 07:07:58;;;;;;;3.75;2.47;;;14.60;89.70;;;;;;4964927;28;20030;-86
2022/04/13 07:10:27;;;;;;;3.45;2.28;;;14.80;88.90;;;;;;4966286;28;20065;-85
2022/04/13 07:12:53;;;;;;;5.15;2.35;;;15.10;88.00;;;;;;4967441;28;20031;-85
2022/04/13 07:15:19;;;;;;;5.53;2.65;;;15.20;87.20;;;;;;4963909;28;20091;-86
2022/04/13 07:17:45;;;;;;;3.75;2.55;;;15.50;86.60;;;;;;4967619;29;20034;-84
2022/04/13 07:20:12;;;;;;;6.78;2.65;;;15.60;85.70;;;;;;4977004;28;20031;-87
2022/04/13 07:22:52;;;;;;;5.47;2.40;;;15.90;85.00;;;;;;4993886;28;20010;-85
2022/04/13 07:25:19;;;;;;;5.30;2.83;;;16.20;84.20;;;;;;4979984;28;20014;-85
2022/04/13 07:27:46;;;;;;;5.45;2.78;;;16.40;83.30;;;;;;4976732;28;20007;-83
2022/04/13 07:30:16;;;;;;;8.57;2.80;;;16.60;82.40;;;;;;4966668;28;20023;-85
2022/04/13 07:32:46;;;;;;;5.88;2.60;;;16.90;81.60;;;;;;4958624;29;20121;-85
2022/04/13 07:35:12;;;;;;;10.15;2.97;;;17.20;80.60;;;;;;4965671;28;20426;-86
2022/04/13 07:37:41;;;;;;;3.65;2.83;;;17.40;79.90;;;;;;4969587;28;20026;-87
2022/04/13 07:40:10;;;;;;;4.50;2.75;;;17.70;79.10;;;;;;4970135;28;20031;-85
2022/04/13 07:42:37;;;;;;;4.20;2.78;;;17.90;78.70;;;;;;4970852;28;20058;-85
2022/04/13 07:45:06;;;;;;;15.02;2.75;;;18.20;78.10;;;;;;4983900;28;20054;-85
2022/04/13 07:47:32;;;;;;;6.03;3.08;;;18.40;76.60;;;;;;4966534;29;20046;-85
2022/04/13 07:49:58;;;;;;;11.10;3.35;;;18.70;75.90;;;;;;4964403;28;20054;-86
2022/04/13 07:52:24;;;;;;;3.78;2.90;;;19.00;75.20;;;;;;4975638;28;20062;-85
2022/04/13 07:54:49;;;;;;;3.92;2.70;;;19.30;74.40;;;;;;4953580;28;20031;-86
2022/04/13 07:57:18;;;;;;;8.30;3.05;;;19.50;73.70;;;;;;4958594;28;20047;-87
2022/04/13 07:59:44;;;;;;;5.65;2.70;;;19.80;72.50;;;;;;4984390;28;20027;-86
2022/04/13 08:02:09;;;;;;;5.40;2.70;;;20.00;71.50;;;;;;4962941;28;20151;-85
2022/04/13 08:05:32;;;;;;;8.02;2.72;;;20.30;70.70;;;;;;4938658;23;20406;-85
2022/04/13 08:08:47;;;;;;;5.95;2.50;;;20.60;69.90;;;;;;4869250;29;20045;-85
2022/04/13 08:12:32;;;;;;;4.38;2.90;;;20.90;69.20;;;;;;4870892;29;20405;-86
2022/04/13 08:15:43;;;;;;;5.13;2.80;;;21.30;69.00;;;;;;4851084;29;20022;-85
2022/04/13 08:22:01;;;;;;;6.45;3.20;;;21.90;66.20;;;;;;4803722;29;20041;-85
2022/04/13 08:28:46;;;;;;;9.45;3.20;;;22.60;64.80;;;;;;4802905;29;20111;-86
2022/04/13 08:32:42;;;;;;;8.35;3.15;;;23.00;64.90;;;;;;4847328;29;20088;-86
2022/04/13 08:36:10;;;;;;;6.60;3.00;;;23.30;63.60;;;;;;4834721;29;20101;-86
2022/04/13 08:39:24;;;;;;;5.22;3.00;;;23.70;62.80;;;;;;4825713;29;20050;-86
2022/04/13 08:42:51;;;;;;;6.05;3.13;;;24.00;61.20;;;;;;4834597;29;20038;-85
2022/04/13 08:46:22;;;;;;;6.60;3.10;;;24.30;60.50;;;;;;4756347;30;20102;-86
2022/04/13 08:57:05;;;;;;;6.72;3.58;;;25.20;58.70;;;;;;4767387;30;20042;-86
2022/04/13 09:10:51;;;;;;;8.27;3.03;;;25.70;56.20;;;;;;4774103;30;20051;-86
2022/04/13 09:14:17;;;;;;;4.50;2.88;;;26.10;55.50;;;;;;4842539;29;20049;-86
2022/04/13 09:24:36;;;;;;;5.07;3.30;;;27.40;52.40;;;;;;4863598;29;20025;-86
2022/04/13 09:31:28;;;;;;;6.18;3.15;;;28.10;51.30;;;;;;4800803;29;20146;-86
2022/04/13 09:34:17;;;;;;;7.63;3.30;;;28.60;50.20;;;;;;4791012;29;20498;-86
2022/04/13 09:41:19;;;;;;;6.20;3.50;;;28.90;49.20;;;;;;4834531;29;20026;-87
2022/04/13 09:48:06;;;;;;;14.63;4.13;;;29.20;48.40;;;;;;4873272;29;20384;-87
2022/04/13 09:54:50;;;;;;;7.70;4.57;;;29.40;47.80;;;;;;4871192;29;20146;-87
2022/04/13 10:01:14;;;;;;;10.00;4.70;;;29.10;47.20;;;;;;4845972;29;20514;-87
2022/04/13 10:19:02;;;;;;;10.85;4.72;;;29.80;47.00;;;;;;4753567;30;20067;-90
2022/04/13 10:22:48;;;;;;;10.38;4.78;;;30.10;46.50;;;;;;4773616;30;20573;-87
2022/04/13 10:26:06;;;;;;;8.35;4.60;;;30.30;45.90;;;;;;4757461;30;20047;-89
2022/04/13 10:32:47;;;;;;;9.35;4.20;;;29.90;45.70;;;;;;4762729;30;20069;-88
2022/04/13 10:36:10;;;;;;;9.60;4.57;;;29.80;45.90;;;;;;4774688;30;20464;-88
2022/04/13 10:39:33;;;;;;;8.80;4.90;;;29.80;46.20;;;;;;4772079;30;20602;-88
2022/04/13 10:46:44;;;;;;;12.43;6.07;;;29.80;46.50;;;;;;4786352;30;20041;-87
2022/04/13 10:50:31;;;;;;;10.15;5.10;;;29.80;46.70;;;;;;4790968;29;20031;-87
2022/04/13 10:57:43;;;;;;;9.85;4.38;;;29.20;47.00;;;;;;4765756;30;20594;-89
2022/04/13 11:01:11;;;;;;;12.63;4.70;;;28.80;47.20;;;;;;4762375;29;20803;-88
2022/04/13 11:21:54;;;;;;;9.48;4.32;;;28.10;47.50;;;;;;4933704;29;20063;-87
2022/04/13 11:24:54;;;;;;;10.45;4.93;;;28.10;47.80;;;;;;4933072;29;20372;-90
2022/04/13 11:27:19;;;;;;;12.75;5.35;;;28.10;47.90;;;;;;4919852;29;20079;-89
2022/04/13 11:30:01;;;;;;;10.15;5.03;;;28.10;47.40;;;;;;4927918;29;20047;-92
2022/04/13 11:32:33;;;;;;;11.93;5.60;;;28.00;46.90;;;;;;4930863;29;20047;-91
2022/04/13 11:35:00;;;;;;;8.02;4.18;;;28.10;47.10;;;;;;4950214;29;20042;-91
2022/04/13 11:37:43;;;;;;;10.02;5.43;;;28.10;47.10;;;;;;4935359;29;20019;-90
2022/04/13 11:40:14;;;;;;;10.70;5.93;;;28.00;47.20;;;;;;4949308;28;20023;-93
2022/04/13 11:42:39;;;;;;;13.75;6.15;;;27.90;47.50;;;;;;4959303;28;20023;-91
2022/04/13 11:45:16;;;;;;;9.75;5.70;;;28.00;47.90;;;;;;4950933;28;20026;-91
2022/04/13 11:47:53;;;;;;;10.77;5.32;;;27.90;47.50;;;;;;4944692;29;20030;-90
2022/04/13 11:50:18;;;;;;;13.05;6.38;;;27.90;46.90;;;;;;4936846;29;20115;-91
2022/04/13 11:52:52;;;;;;;13.40;5.50;;;27.90;47.20;;;;;;4945178;28;20110;-89
2022/04/13 11:55:21;;;;;;;12.60;5.97;;;27.90;46.90;;;;;;4927050;28;20031;-89
2022/04/13 11:58:12;;;;;;;11.32;5.95;;;27.90;47.50;;;;;;4927110;29;20053;-92
2022/04/13 12:01:11;;;;;;;14.48;6.53;;;27.90;47.10;;;;;;4958733;28;20110;-90
2022/04/13 12:03:41;;;;;;;12.93;6.07;;;28.00;47.00;;;;;;4949443;29;20038;-90
2022/04/13 12:06:09;;;;;;;15.10;7.93;;;28.00;46.60;;;;;;4937175;29;20019;-90
2022/04/13 12:08:40;;;;;;;13.00;6.15;;;28.10;46.60;;;;;;4936678;29;20028;-90
2022/04/13 12:11:11;;;;;;;11.32;5.50;;;28.10;46.60;;;;;;4918204;29;20034;-89
2022/04/13 12:13:57;;;;;;;11.60;5.28;;;28.10;46.10;;;;;;4936175;29;20035;-91
2022/04/13 12:16:30;;;;;;;10.30;5.22;;;28.10;46.40;;;;;;4936015;29;20030;-90
2022/04/13 12:19:07;;;;;;;11.73;5.50;;;28.20;45.80;;;;;;4928958;28;20097;-90
2022/04/13 12:21:36;;;;;;;14.05;5.18;;;28.10;45.80;;;;;;4939669;28;20412;-89
2022/04/13 12:24:07;;;;;;;12.02;6.75;;;28.10;46.00;;;;;;4935376;29;20050;-90
2022/04/13 12:26:38;;;;;;;14.50;6.82;;;28.20;46.10;;;;;;4952296;29;20068;-90
2022/04/13 12:29:16;;;;;;;16.02;6.45;;;28.20;46.10;;;;;;4952995;29;20030;-90
2022/04/13 12:31:51;;;;;;;12.90;5.50;;;28.20;46.10;;;;;;4935882;29;20027;-91
2022/04/13 12:34:18;;;;;;;11.70;5.53;;;28.30;46.00;;;;;;4939292;29;20031;-90
2022/04/13 12:36:59;;;;;;;11.20;5.97;;;28.40;46.30;;;;;;4921923;29;20106;-90
2022/04/13 12:39:30;;;;;;;9.82;5.45;;;28.50;46.50;;;;;;4933098;29;20027;-91
2022/04/13 12:41:55;;;;;;;13.15;5.65;;;28.70;46.20;;;;;;4928009;29;20105;-90
2022/04/13 12:44:21;;;;;;;11.23;5.22;;;28.60;45.90;;;;;;4956804;29;20059;-90
2022/04/13 12:46:47;;;;;;;11.18;5.03;;;28.60;45.40;;;;;;4939612;29;20031;-88
2022/04/13 12:49:20;;;;;;;19.67;7.43;;;28.50;45.50;;;;;;4940102;29;20462;-90
2022/04/13 12:51:47;;;;;;;12.93;6.78;;;28.50;45.70;;;;;;4959062;28;20485;-90
2022/04/13 12:54:17;;;;;;;13.65;5.93;;;28.40;45.30;;;;;;4930960;29;20042;-91
2022/04/13 12:56:48;;;;;;;10.70;6.20;;;28.30;45.40;;;;;;4939618;29;20391;-91
2022/04/13 12:59:25;;;;;;;11.57;5.82;;;28.20;45.20;;;;;;4935854;29;20034;-91
2022/04/13 13:01:54;;;;;;;11.15;4.90;;;28.20;45.20;;;;;;4939410;29;20027;-91
2022/04/13 13:04:22;;;;;;;13.95;6.93;;;28.10;45.60;;;;;;4957001;29;20449;-90
2022/04/13 13:07:04;;;;;;;13.07;6.10;;;28.00;45.20;;;;;;4939986;29;20418;-92
2022/04/13 13:09:36;;;;;;;10.43;5.47;;;28.00;45.20;;;;;;4950617;29;20032;-90
2022/04/13 13:12:15;;;;;;;9.52;5.10;;;28.00;45.20;;;;;;4954587;28;20487;-90
2022/04/13 13:14:43;;;;;;;9.25;4.60;;;28.00;45.40;;;;;;4935545;29;20032;-90
2022/04/13 13:17:18;;;;;;;9.00;4.43;;;27.90;44.90;;;;;;4939185;29;20057;-91
2022/04/13 13:19:45;;;;;;;12.77;4.65;;;27.90;45.00;;;;;;4957127;29;20031;-90
2022/04/13 13:22:12;;;;;;;11.57;4.82;;;27.90;44.80;;;;;;4938057;29;20027;-91
2022/04/13 13:25:04;;;;;;;9.57;4.10;;;27.70;44.70;;;;;;4938744;29;20035;-90
2022/04/13 13:27:31;;;;;;;8.07;4.93;;;27.70;44.90;;;;;;4938964;29;20066;-91
2022/04/13 13:30:05;;;;;;;8.48;3.97;;;27.60;44.80;;;;;;4939367;29;20314;-89
2022/04/13 13:32:37;;;;;;;7.05;3.40;;;27.60;44.70;;;;;;4938808;29;20087;-90
2022/04/13 13:35:06;;;;;;;7.13;3.70;;;27.60;44.60;;;;;;4934602;28;20037;-91
2022/04/13 13:37:53;;;;;;;13.85;3.95;;;27.60;45.00;;;;;;4927506;29;20031;-89
2022/04/13 13:40:42;;;;;;;7.10;3.60;;;27.50;44.50;;;;;;4929011;28;20059;-87
2022/04/13 13:43:35;;;;;;;7.03;3.60;;;27.40;44.40;;;;;;4944933;28;20031;-88
2022/04/13 13:46:13;;;;;;;7.25;2.60;;;27.40;44.80;;;;;;4931549;28;20118;-86
2022/04/13 13:48:39;;;;;;;6.50;3.08;;;27.40;44.70;;;;;;4925343;29;20045;-86
2022/04/13 13:51:04;;;;;;;8.13;3.30;;;27.40;45.50;;;;;;4949982;28;20028;-86
2022/04/13 13:53:30;;;;;;;6.63;3.40;;;27.30;44.70;;;;;;4946645;28;20035;-86
2022/04/13 13:55:56;;;;;;;5.75;2.92;;;27.40;44.90;;;;;;4930712;28;20038;-87
2022/04/13 13:58:22;;;;;;;5.88;3.40;;;27.40;45.20;;;;;;4937593;29;20027;-86
2022/04/13 14:00:48;;;;;;;9.57;2.88;;;27.30;44.80;;;;;;4938374;29;20039;-88
2022/04/13 14:05:44;;;;;;;8.60;3.35;;;27.30;44.90;;;;;;4933191;29;20051;-83
2022/04/13 14:08:11;;;;;;;8.85;3.50;;;27.20;44.70;;;;;;4942836;29;20020;-85
2022/04/13 14:10:39;;;;;;;6.07;3.05;;;27.20;44.90;;;;;;4927378;29;20035;-84
2022/04/13 14:13:07;;;;;;;5.35;2.83;;;27.10;44.50;;;;;;4948845;29;20574;-82
2022/04/13 14:15:36;;;;;;;10.40;2.95;;;27.00;44.50;;;;;;4934093;29;20118;-83
2022/04/13 14:18:03;;;;;;;8.85;3.45;;;27.00;44.60;;;;;;4939491;29;20024;-84
2022/04/13 14:20:28;;;;;;;11.77;3.42;;;27.00;44.40;;;;;;4923159;29;20028;-83
2022/04/13 14:22:55;;;;;;;8.73;2.92;;;26.90;44.40;;;;;;4935117;29;20038;-84
2022/04/13 14:25:22;;;;;;;7.05;4.07;;;26.80;44.80;;;;;;4932622;29;20035;-85
2022/04/13 14:27:53;;;;;;;6.63;3.47;;;26.70;44.50;;;;;;4912088;29;20039;-82
2022/04/13 14:30:24;;;;;;;6.18;2.85;;;26.70;44.40;;;;;;4919498;29;20720;-84
2022/04/13 14:32:50;;;;;;;6.50;3.35;;;26.60;44.40;;;;;;4914484;29;20032;-81
2022/04/13 14:35:17;;;;;;;6.20;3.30;;;26.50;44.40;;;;;;4932595;29;20052;-84
2022/04/13 14:37:43;;;;;;;6.05;3.15;;;26.40;44.50;;;;;;4921611;29;20031;-83
2022/04/13 14:40:10;;;;;;;10.25;4.00;;;26.20;44.70;;;;;;4909564;29;20056;-84
2022/04/13 14:42:37;;;;;;;6.20;2.67;;;26.20;44.70;;;;;;4937143;29;20035;-83
2022/04/13 14:45:03;;;;;;;8.18;3.30;;;26.10;45.30;;;;;;4933924;29;20059;-82
2022/04/13 14:47:29;;;;;;;6.88;3.13;;;26.10;44.60;;;;;;4942164;29;20028;-84
2022/04/13 14:49:55;;;;;;;3.83;2.53;;;26.10;44.90;;;;;;4919119;29;20572;-82
2022/04/13 14:52:21;;;;;;;6.53;2.75;;;26.00;45.00;;;;;;4924818;29;20026;-82
2022/04/13 14:54:46;;;;;;;6.25;2.53;;;26.10;45.10;;;;;;4903436;29;20035;-83